Time;durP1;ratioP1;P1;durP2;ratioP2;P2;SDS_P1;SDS_P2;PMS_P1;PMS_P2;Temp;Humidity;BMP_temperature;BMP_pressure;BME280_temperature;BME280_humidity;BME280_pressure;Samples;Min_cycle;Max_cycle;Signal;HPM_P1;HPM_P2
2022/08/29 00:00:21;;;;;;;21.33;7.08;;;;;;;20.64;61.72;100887.13;1728086;82;27461;-62
2022/08/29 00:02:54;;;;;;;16.07;7.10;;;;;;;20.59;61.64;100889.59;1726958;82;25711;-62
2022/08/29 00:05:25;;;;;;;19.55;7.05;;;;;;;20.58;61.89;100893.37;1728278;82;25613;-62
2022/08/29 00:07:52;;;;;;;23.67;7.40;;;;;;;20.57;62.12;100887.61;1717616;82;25950;-62
2022/08/29 00:10:21;;;;;;;18.45;6.83;;;;;;;20.56;62.38;100883.19;1724132;82;25796;-62
2022/08/29 00:12:49;;;;;;;17.17;6.62;;;;;;;20.55;62.89;100884.22;1722166;82;27439;-62
2022/08/29 00:15:17;;;;;;;16.93;6.55;;;;;;;20.54;62.77;100888.50;1726682;82;26163;-62
2022/08/29 00:17:44;;;;;;;20.72;6.75;;;;;;;20.55;63.36;100882.86;1727687;82;25700;-62
2022/08/29 00:20:16;;;;;;;16.52;6.33;;;;;;;20.55;62.94;100888.83;1727021;82;25806;-63
2022/08/29 00:22:43;;;;;;;22.85;6.97;;;;;;;20.56;62.91;100890.02;1673304;84;25773;-63
2022/08/29 00:25:14;;;;;;;13.00;6.62;;;;;;;20.54;62.85;100891.23;1694557;84;28207;-64
2022/08/29 00:27:41;;;;;;;15.78;6.22;;;;;;;20.53;64.19;100889.58;1688266;84;25658;-62
2022/08/29 00:30:11;;;;;;;22.60;7.10;;;;;;;20.47;64.86;100889.84;1696578;84;25782;-62
2022/08/29 00:32:38;;;;;;;20.25;6.67;;;;;;;20.36;64.89;100888.48;1731536;82;25777;-62
2022/08/29 00:35:13;;;;;;;25.43;7.17;;;;;;;20.24;64.90;100885.98;1725413;82;25966;-63
2022/08/29 00:37:41;;;;;;;23.10;8.10;;;;;;;20.22;64.53;100890.26;1715165;82;27521;-64
2022/08/29 00:40:14;;;;;;;19.92;7.00;;;;;;;20.23;64.45;100888.39;1700435;82;25728;-63
2022/08/29 00:42:42;;;;;;;17.45;6.92;;;;;;;20.25;64.51;100889.05;1701095;83;25805;-63
2022/08/29 00:45:13;;;;;;;33.73;7.35;;;;;;;20.25;64.55;100894.50;1676753;84;25859;-62
2022/08/29 00:47:46;;;;;;;22.75;7.20;;;;;;;20.25;64.93;100898.07;1740652;82;26502;-63
2022/08/29 00:50:27;;;;;;;26.17;6.97;;;;;;;20.22;64.56;100905.28;1739746;82;28410;-63
2022/08/29 00:52:56;;;;;;;15.78;6.83;;;;;;;20.24;64.57;100902.38;1740335;82;25821;-63
2022/08/29 00:55:28;;;;;;;19.42;6.55;;;;;;;20.23;64.58;100899.31;1741112;82;25784;-64
2022/08/29 00:58:07;;;;;;;20.48;7.58;;;;;;;20.20;64.35;100897.83;1741538;82;25822;-63
2022/08/29 01:00:37;;;;;;;22.35;6.22;;;;;;;20.18;64.57;100897.17;1741659;82;25814;-63
2022/08/29 01:03:06;;;;;;;17.45;6.40;;;;;;;20.17;64.68;100894.95;1741509;82;28176;-63
2022/08/29 01:05:35;;;;;;;14.10;6.40;;;;;;;20.16;64.48;100897.88;1741200;82;25772;-62
2022/08/29 01:08:03;;;;;;;11.83;5.95;;;;;;;20.13;64.71;100894.17;1743319;82;25766;-62
2022/08/29 01:13:16;;;;;;;16.40;6.00;;;;;;;20.09;64.56;100906.02;1743321;82;25650;-62
2022/08/29 01:15:46;;;;;;;19.35;6.22;;;;;;;20.11;64.83;100903.11;1741052;82;27606;-63
2022/08/29 01:18:15;;;;;;;14.85;5.67;;;;;;;20.13;64.69;100899.63;1742857;82;25755;-62
2022/08/29 01:21:14;;;;;;;16.62;5.55;;;;;;;20.15;64.73;100901.15;1738915;80;25752;-63
2022/08/29 01:23:52;;;;;;;17.15;6.45;;;;;;;20.14;65.02;100903.55;1736246;80;25837;-63
2022/08/29 01:26:21;;;;;;;17.32;6.47;;;;;;;20.09;64.73;100898.35;1741123;82;26082;-63
2022/08/29 01:28:51;;;;;;;14.28;5.37;;;;;;;20.07;64.94;100904.02;1740098;82;27506;-64
2022/08/29 01:31:24;;;;;;;23.75;6.17;;;;;;;20.02;65.00;100895.55;1732102;82;25851;-63
2022/08/29 01:33:57;;;;;;;16.30;6.47;;;;;;;19.97;64.95;100898.03;1741810;82;25685;-62
2022/08/29 01:36:29;;;;;;;16.25;5.87;;;;;;;19.96;65.33;100899.91;1745342;82;25968;-62
2022/08/29 01:38:56;;;;;;;19.50;6.15;;;;;;;19.97;65.19;100898.87;1740309;82;25708;-65
2022/08/29 01:41:22;;;;;;;21.70;5.83;;;;;;;19.99;65.20;100898.70;1739493;82;27316;-63
2022/08/29 01:43:54;;;;;;;24.98;6.62;;;;;;;19.95;65.35;100895.48;1738712;81;25827;-63
2022/08/29 01:46:26;;;;;;;13.93;5.30;;;;;;;19.94;65.54;100898.41;1730606;82;25739;-62
2022/08/29 01:48:54;;;;;;;11.55;5.65;;;;;;;19.92;65.45;100897.26;1728758;82;26033;-63
2022/08/29 01:51:21;;;;;;;16.87;5.78;;;;;;;19.91;66.21;100901.53;1728919;82;25725;-62
2022/08/29 01:53:48;;;;;;;13.28;5.72;;;;;;;19.80;66.96;100898.77;1716710;82;27626;-62
2022/08/29 01:56:23;;;;;;;15.75;5.47;;;;;;;19.74;66.59;100904.48;1725913;82;25773;-62
2022/08/29 01:58:53;;;;;;;24.20;6.25;;;;;;;19.70;66.78;100893.11;1727577;82;25807;-62
2022/08/29 02:01:25;;;;;;;14.85;5.40;;;;;;;19.67;66.53;100900.84;1728084;82;25772;-62
2022/08/29 02:03:52;;;;;;;11.75;5.60;;;;;;;19.68;66.72;100894.34;1718082;82;26360;-62
2022/08/29 02:06:20;;;;;;;17.25;5.67;;;;;;;19.71;66.66;100898.90;1727519;82;27470;-62
2022/08/29 02:08:47;;;;;;;20.65;6.15;;;;;;;19.73;66.67;100893.23;1726667;82;25854;-62
2022/08/29 02:11:16;;;;;;;14.23;5.78;;;;;;;19.70;66.77;100893.11;1727363;82;25744;-61
2022/08/29 02:13:48;;;;;;;15.65;5.80;;;;;;;19.66;66.45;100894.55;1726559;82;26769;-62
2022/08/29 02:16:16;;;;;;;15.98;5.60;;;;;;;19.62;68.06;100894.59;1729303;82;25795;-62
2022/08/29 02:18:43;;;;;;;16.75;5.95;;;;;;;19.53;67.78;100893.02;1716913;82;27468;-62
2022/08/29 02:21:12;;;;;;;15.53;5.40;;;;;;;19.47;68.16;100899.27;1726887;82;25851;-62
2022/08/29 02:23:41;;;;;;;24.43;6.05;;;;;;;19.39;68.55;100903.80;1727698;81;25753;-62
2022/08/29 02:26:08;;;;;;;22.17;7.15;;;;;;;19.31;68.79;100900.33;1717989;82;25776;-62
2022/08/29 02:28:37;;;;;;;15.80;5.97;;;;;;;19.29;68.34;100906.48;1721853;82;25833;-64
2022/08/29 02:31:06;;;;;;;17.90;5.55;;;;;;;19.32;68.24;100909.67;1707011;82;27609;-62
2022/08/29 02:33:33;;;;;;;14.87;5.22;;;;;;;19.33;68.40;100903.71;1707052;82;25786;-62
2022/08/29 02:36:03;;;;;;;14.10;5.60;;;;;;;19.31;68.44;100909.37;1724643;82;25673;-62
2022/08/29 02:38:29;;;;;;;14.70;5.90;;;;;;;19.33;68.46;100902.34;1708842;82;25898;-62
2022/08/29 02:40:57;;;;;;;16.90;5.47;;;;;;;19.34;68.48;100910.33;1688207;83;26438;-63
2022/08/29 02:43:44;;;;;;;14.03;5.85;;;;;;;19.35;68.42;100907.94;1676400;85;27428;-62
2022/08/29 02:46:19;;;;;;;16.65;5.22;;;;;;;19.33;68.28;100905.91;1676782;84;26190;-63
2022/08/29 02:48:47;;;;;;;15.70;5.72;;;;;;;19.30;68.19;100904.08;1666146;85;25772;-63
2022/08/29 02:51:26;;;;;;;21.23;5.42;;;;;;;19.30;68.57;100909.53;1676782;84;26595;-63
2022/08/29 02:53:54;;;;;;;15.45;5.22;;;;;;;19.30;68.48;100914.49;1676357;85;25861;-63
2022/08/29 02:56:22;;;;;;;14.00;5.40;;;;;;;19.27;69.80;100910.77;1676859;84;27500;-63
2022/08/29 02:58:49;;;;;;;23.98;5.92;;;;;;;19.15;69.93;100914.50;1676431;84;25674;-63
2022/08/29 03:01:19;;;;;;;18.32;5.70;;;;;;;19.07;69.47;100914.08;1706617;83;25758;-62
2022/08/29 03:03:46;;;;;;;16.02;6.20;;;;;;;19.07;69.75;100917.34;1715759;83;25896;-65
2022/08/29 03:06:13;;;;;;;17.92;5.92;;;;;;;19.06;69.39;100917.00;1705057;83;25769;-63
2022/08/29 03:08:41;;;;;;;19.07;5.37;;;;;;;19.05;69.42;100917.50;1729312;81;27649;-63
2022/08/29 03:11:08;;;;;;;22.22;6.00;;;;;;;19.02;69.91;100924.72;1714035;82;25515;-63
2022/08/29 03:13:36;;;;;;;15.35;5.15;;;;;;;18.95;69.59;100919.70;1728693;82;25770;-62
2022/08/29 03:16:04;;;;;;;14.93;4.92;;;;;;;18.93;69.65;100921.75;1714221;82;26408;-63
2022/08/29 03:18:31;;;;;;;17.17;5.42;;;;;;;18.95;69.71;100927.01;1713547;82;25458;-63
2022/08/29 03:20:58;;;;;;;18.05;5.55;;;;;;;18.93;69.66;100925.31;1711643;83;27640;-63
2022/08/29 03:23:25;;;;;;;15.08;5.37;;;;;;;18.95;69.65;100927.88;1711960;82;25984;-63
2022/08/29 03:25:53;;;;;;;13.25;5.10;;;;;;;18.98;69.59;100930.73;1720041;81;25786;-64
2022/08/29 03:28:20;;;;;;;12.43;5.22;;;;;;;19.01;69.45;100932.56;1704635;82;25895;-64
2022/08/29 03:30:47;;;;;;;15.28;5.65;;;;;;;19.03;69.39;100939.18;1721091;82;25722;-63
2022/08/29 03:33:14;;;;;;;11.50;5.45;;;;;;;19.03;69.52;100949.58;1725491;82;27472;-62
2022/08/29 03:35:41;;;;;;;12.82;5.10;;;;;;;19.03;69.70;100955.04;1713105;82;25743;-63
2022/08/29 03:38:08;;;;;;;18.98;5.97;;;;;;;19.02;69.57;100959.30;1714593;83;25798;-61
2022/08/29 03:40:35;;;;;;;14.98;5.30;;;;;;;19.02;69.49;100962.88;1723656;82;25909;-62
2022/08/29 03:43:03;;;;;;;13.70;5.05;;;;;;;19.00;70.21;100963.58;1723958;82;25881;-61
2022/08/29 03:45:32;;;;;;;14.55;5.67;;;;;;;18.93;71.67;100968.09;1732575;81;27538;-63
2022/08/29 03:47:59;;;;;;;13.60;5.05;;;;;;;18.88;70.88;100972.70;1745280;81;26034;-63
2022/08/29 03:50:26;;;;;;;18.05;5.10;;;;;;;18.90;70.63;100973.88;1721601;82;25722;-63
2022/08/29 03:52:53;;;;;;;19.82;5.20;;;;;;;18.93;70.50;100977.64;1722994;83;25886;-63
2022/08/29 03:55:20;;;;;;;15.58;5.42;;;;;;;18.95;70.89;100975.58;1721114;83;26887;-62
2022/08/29 03:57:48;;;;;;;14.47;5.08;;;;;;;18.96;70.56;100973.69;1722404;83;27678;-62
2022/08/29 04:00:18;;;;;;;20.70;5.33;;;;;;;18.97;70.55;100979.47;1710069;83;25733;-62
2022/08/29 04:02:47;;;;;;;16.32;5.05;;;;;;;18.93;71.17;100979.83;1726591;83;25971;-63
2022/08/29 04:05:15;;;;;;;19.95;4.92;;;;;;;18.91;70.47;100981.89;1721035;82;25789;-62
2022/08/29 04:07:50;;;;;;;19.20;5.20;;;;;;;18.94;70.44;100983.42;1721584;83;25724;-62
2022/08/29 04:10:29;;;;;;;16.27;5.05;;;;;;;18.97;70.32;100985.75;1722039;82;28714;-62
2022/08/29 04:12:57;;;;;;;21.87;4.95;;;;;;;19.03;70.33;100990.98;1720773;82;26480;-61
2022/08/29 04:15:26;;;;;;;12.35;6.58;;;;;;;19.04;70.28;100986.72;1723102;82;26483;-64
2022/08/29 04:17:56;;;;;;;15.10;5.25;;;;;;;19.00;70.80;100987.28;1701917;83;25901;-60
2022/08/29 04:20:28;;;;;;;21.90;4.65;;;;;;;19.00;70.55;100984.03;1678207;85;25799;-61
2022/08/29 04:22:58;;;;;;;14.15;5.25;;;;;;;19.02;71.01;100989.28;1680992;84;27141;-62
2022/08/29 04:25:34;;;;;;;14.38;5.03;;;;;;;19.02;70.71;100988.78;1706245;83;25854;-62
2022/08/29 04:27:57;;;;;;;11.75;5.17;;;;;;;19.03;70.68;100994.57;1714200;82;25772;-62
2022/08/29 04:30:26;;;;;;;18.95;6.53;;;;;;;19.05;70.77;100999.30;1682277;84;25808;-63
2022/08/29 04:32:54;;;;;;;18.52;5.97;;;;;;;19.07;70.71;101004.58;1680298;84;25653;-62
2022/08/29 04:35:21;;;;;;;13.90;5.83;;;;;;;19.10;70.61;101000.09;1720863;82;27312;-61
2022/08/29 04:37:48;;;;;;;23.55;7.00;;;;;;;19.16;70.92;101002.59;1706172;83;25693;-62
2022/08/29 04:40:20;;;;;;;26.35;6.05;;;;;;;19.16;70.88;101008.05;1723787;82;25847;-62
2022/08/29 04:42:47;;;;;;;22.37;5.97;;;;;;;19.18;71.04;101007.36;1719424;82;26445;-62
2022/08/29 04:45:19;;;;;;;19.40;5.95;;;;;;;19.21;71.06;101006.45;1712415;83;25517;-63
2022/08/29 04:47:46;;;;;;;25.57;5.92;;;;;;;19.27;70.85;101010.85;1719647;83;27744;-62
2022/08/29 04:50:18;;;;;;;17.92;7.45;;;;;;;19.33;70.60;101008.73;1721751;83;25694;-62
2022/08/29 04:52:46;;;;;;;18.17;6.53;;;;;;;19.42;70.45;101004.00;1720102;83;25885;-61
2022/08/29 04:55:14;;;;;;;32.53;6.10;;;;;;;19.51;70.21;101005.59;1721704;82;25802;-64
2022/08/29 04:57:42;;;;;;;23.47;5.70;;;;;;;19.59;69.50;101004.66;1720997;83;25752;-61
2022/08/29 05:00:14;;;;;;;28.23;6.30;;;;;;;19.67;69.35;101012.23;1723067;82;27544;-62
2022/08/29 05:02:43;;;;;;;24.32;6.85;;;;;;;19.76;69.16;101013.48;1700390;82;26767;-63
2022/08/29 05:05:14;;;;;;;30.50;8.35;;;;;;;19.81;68.32;101017.84;1722588;83;26099;-62
2022/08/29 05:07:42;;;;;;;18.73;5.75;;;;;;;19.89;67.74;101014.20;1712783;83;25711;-63
2022/08/29 05:10:17;;;;;;;24.47;5.95;;;;;;;19.99;67.05;101014.20;1711124;83;25971;-62
2022/08/29 05:12:45;;;;;;;28.70;6.37;;;;;;;20.09;66.49;101011.15;1680366;84;28286;-61
2022/08/29 05:15:13;;;;;;;26.52;6.55;;;;;;;20.20;65.79;101017.14;1721963;82;25802;-62
2022/08/29 05:17:41;;;;;;;30.25;7.10;;;;;;;20.32;65.64;101020.53;1701149;83;25712;-62
2022/08/29 05:20:10;;;;;;;27.87;6.72;;;;;;;20.41;64.73;101021.77;1724122;82;25804;-62
2022/08/29 05:22:38;;;;;;;37.10;7.12;;;;;;;20.49;64.57;101021.13;1724296;82;25755;-62
2022/08/29 05:25:07;;;;;;;34.08;6.47;;;;;;;20.58;64.35;101027.83;1710798;83;27467;-62
2022/08/29 05:27:34;;;;;;;21.37;6.72;;;;;;;20.66;63.82;101029.59;1721572;83;26424;-65
2022/08/29 05:30:03;;;;;;;27.90;6.35;;;;;;;20.72;63.50;101031.52;1723623;83;25840;-62
2022/08/29 05:32:30;;;;;;;24.55;7.20;;;;;;;20.80;63.37;101024.57;1724463;82;26496;-63
2022/08/29 05:34:58;;;;;;;37.60;7.92;;;;;;;20.88;63.33;101027.70;1721284;83;25720;-62
2022/08/29 05:37:26;;;;;;;30.15;6.95;;;;;;;20.91;62.19;101030.88;1716634;83;27532;-62
2022/08/29 05:39:53;;;;;;;23.92;7.47;;;;;;;20.97;62.20;101034.70;1669275;85;25768;-62
2022/08/29 05:42:21;;;;;;;26.95;6.50;;;;;;;21.06;62.16;101033.52;1681201;84;25814;-62
2022/08/29 05:44:49;;;;;;;27.17;6.53;;;;;;;21.15;61.95;101036.92;1715362;83;25823;-62
2022/08/29 05:47:19;;;;;;;28.75;6.40;;;;;;;21.23;62.02;101042.23;1742184;82;25761;-62
2022/08/29 05:49:49;;;;;;;16.77;5.55;;;;;;;21.30;62.13;101042.29;1714260;83;28374;-62
2022/08/29 05:52:19;;;;;;;22.62;6.22;;;;;;;21.36;60.98;101040.64;1726883;82;25911;-62
2022/08/29 05:54:47;;;;;;;20.55;6.22;;;;;;;21.43;60.86;101042.89;1706368;83;25818;-62
2022/08/29 05:57:19;;;;;;;28.55;5.65;;;;;;;21.52;60.50;101038.08;1723885;82;25833;-62
2022/08/29 05:59:51;;;;;;;21.85;5.95;;;;;;;21.61;60.39;101037.43;1666242;84;25925;-63
2022/08/29 06:02:20;;;;;;;22.85;6.37;;;;;;;21.70;60.10;101036.21;1714985;83;27470;-63
2022/08/29 06:04:48;;;;;;;18.15;6.22;;;;;;;21.80;59.80;101038.56;1706660;83;25875;-63
2022/08/29 06:07:16;;;;;;;19.50;5.53;;;;;;;21.88;59.49;101037.01;1726582;82;25826;-63
2022/08/29 06:09:44;;;;;;;17.02;6.67;;;;;;;21.99;59.32;101035.59;1713232;83;25846;-63
2022/08/29 06:15:40;;;;;;;16.95;5.90;;;;;;;22.15;58.15;101041.20;1704820;82;28191;-63
2022/08/29 06:18:06;;;;;;;23.12;5.80;;;;;;;22.26;57.84;101044.72;1710294;83;26772;-63
2022/08/29 06:20:33;;;;;;;20.35;5.45;;;;;;;22.35;57.37;101045.38;1703856;82;25869;-63
2022/08/29 06:23:00;;;;;;;19.85;5.62;;;;;;;22.44;57.25;101048.28;1642678;86;25947;-62
2022/08/29 06:25:27;;;;;;;18.23;5.17;;;;;;;22.53;57.04;101039.85;1694354;84;27249;-64
2022/08/29 06:27:54;;;;;;;20.10;5.50;;;;;;;22.59;57.09;101049.43;1712503;83;27484;-63
2022/08/29 06:30:21;;;;;;;20.45;5.35;;;;;;;22.67;57.13;101044.28;1692665;82;26219;-63
2022/08/29 06:32:48;;;;;;;17.12;5.30;;;;;;;22.73;56.44;101048.91;1713219;83;26549;-63
2022/08/29 06:35:15;;;;;;;24.25;5.25;;;;;;;22.81;56.13;101048.73;1726302;82;25919;-63
2022/08/29 06:37:42;;;;;;;14.87;4.75;;;;;;;22.89;55.73;101044.09;1708978;82;25954;-63
2022/08/29 06:40:11;;;;;;;14.35;4.37;;;;;;;23.00;55.83;101048.91;1717971;82;27602;-62
2022/08/29 06:42:38;;;;;;;13.88;4.85;;;;;;;23.08;55.23;101051.47;1717252;82;25902;-64
2022/08/29 06:45:09;;;;;;;14.15;5.83;;;;;;;23.16;54.81;101045.44;1714027;83;25755;-62
2022/08/29 06:47:36;;;;;;;21.10;5.08;;;;;;;23.25;54.52;101046.38;1713108;83;25847;-63
2022/08/29 06:50:05;;;;;;;18.25;4.53;;;;;;;23.33;54.21;101043.95;1715698;83;25749;-63
2022/08/29 06:52:32;;;;;;;28.70;4.67;;;;;;;23.43;54.33;101042.12;1715656;83;27419;-63
2022/08/29 06:54:59;;;;;;;14.00;4.62;;;;;;;23.52;54.21;101044.95;1715971;82;25824;-62
2022/08/29 06:57:27;;;;;;;19.55;5.03;;;;;;;23.60;53.81;101049.37;1725108;82;25702;-63
2022/08/29 06:59:54;;;;;;;14.90;5.15;;;;;;;23.70;53.52;101051.13;1712036;82;26746;-62
2022/08/29 07:02:21;;;;;;;28.52;5.85;;;;;;;23.81;53.25;101047.37;1699415;82;25721;-62
2022/08/29 07:04:48;;;;;;;12.88;4.60;;;;;;;23.93;53.48;101040.14;1716534;83;27999;-62
2022/08/29 07:07:15;;;;;;;18.62;5.85;;;;;;;24.04;53.08;101045.50;1705915;82;25935;-62
2022/08/29 07:09:43;;;;;;;29.85;5.65;;;;;;;24.14;52.96;101039.00;1698115;82;25879;-64
2022/08/29 07:12:10;;;;;;;17.52;4.90;;;;;;;24.23;52.96;101039.59;1666913;85;26917;-63
2022/08/29 07:14:37;;;;;;;15.40;5.40;;;;;;;24.34;52.93;101040.25;1716873;83;25926;-64
2022/08/29 07:17:04;;;;;;;19.42;5.12;;;;;;;24.44;52.79;101040.29;1715780;83;27493;-63
2022/08/29 07:19:30;;;;;;;26.57;5.50;;;;;;;24.54;52.48;101041.50;1692036;83;25785;-63
2022/08/29 07:21:59;;;;;;;16.27;4.78;;;;;;;24.65;52.19;101041.30;1700521;82;25688;-62
2022/08/29 07:24:26;;;;;;;21.65;5.08;;;;;;;24.74;51.99;101039.69;1709521;82;25947;-62
2022/08/29 07:26:53;;;;;;;22.58;4.85;;;;;;;24.83;51.68;101035.58;1718911;82;25774;-63
2022/08/29 07:29:22;;;;;;;19.62;4.33;;;;;;;24.92;51.58;101035.61;1696612;82;28414;-63
2022/08/29 07:31:49;;;;;;;15.23;4.35;;;;;;;25.03;51.68;101038.70;1716797;82;25927;-63
2022/08/29 07:34:17;;;;;;;24.95;4.70;;;;;;;25.11;51.03;101040.61;1724504;81;25723;-64
2022/08/29 07:36:46;;;;;;;18.87;4.95;;;;;;;25.22;50.59;101036.28;1705042;82;25937;-63
2022/08/29 07:39:16;;;;;;;19.62;5.53;;;;;;;25.33;50.96;101039.36;1649416;84;25894;-65
2022/08/29 07:41:59;;;;;;;24.02;5.10;;;;;;;25.43;51.17;101034.17;1659249;84;28546;-64
2022/08/29 07:44:26;;;;;;;23.25;4.95;;;;;;;25.54;51.17;101032.59;1658542;85;25865;-65
2022/08/29 07:46:57;;;;;;;27.37;5.42;;;;;;;25.72;49.65;101035.84;1708646;83;25910;-65
2022/08/29 07:49:25;;;;;;;19.98;4.65;;;;;;;25.81;49.66;101035.84;1698308;83;25843;-64
2022/08/29 07:51:54;;;;;;;24.75;4.12;;;;;;;25.92;49.27;101039.20;1708792;83;25983;-64
2022/08/29 07:54:22;;;;;;;24.00;4.67;;;;;;;26.07;49.58;101036.55;1714437;83;27632;-64
2022/08/29 07:56:52;;;;;;;26.90;4.90;;;;;;;26.23;48.60;101035.92;1720475;83;26224;-64
2022/08/29 07:59:20;;;;;;;27.42;4.47;;;;;;;26.37;48.57;101034.36;1699022;83;26009;-64
2022/08/29 08:01:47;;;;;;;25.27;4.40;;;;;;;26.49;48.42;101032.45;1723507;83;25823;-64
2022/08/29 08:04:14;;;;;;;15.15;3.90;;;;;;;26.62;48.04;101041.08;1724517;82;25755;-65
2022/08/29 08:06:42;;;;;;;33.65;4.55;;;;;;;26.74;47.43;101030.58;1699795;83;27481;-63
2022/08/29 08:09:10;;;;;;;42.60;5.05;;;;;;;26.84;47.45;101024.83;1697317;83;27276;-63
2022/08/29 08:11:38;;;;;;;19.25;4.08;;;;;;;26.98;45.94;101032.33;1674791;83;25817;-63
2022/08/29 08:14:05;;;;;;;18.02;4.08;;;;;;;27.08;46.25;101026.20;1701763;83;26587;-64
2022/08/29 08:16:33;;;;;;;26.12;4.70;;;;;;;27.21;45.32;101038.09;1679288;85;25836;-64
2022/08/29 08:19:01;;;;;;;27.45;4.47;;;;;;;27.34;45.08;101030.36;1720001;82;27427;-64
2022/08/29 08:21:29;;;;;;;32.73;7.17;;;;;;;27.43;45.15;101025.34;1707073;83;26560;-64
2022/08/29 08:23:56;;;;;;;27.02;4.12;;;;;;;27.56;44.54;101028.38;1686866;83;25838;-64
2022/08/29 08:26:23;;;;;;;24.27;5.08;;;;;;;27.65;44.06;101018.62;1726465;82;25793;-64
2022/08/29 08:28:52;;;;;;;17.90;4.33;;;;;;;27.78;44.24;101018.88;1726721;83;26572;-63
2022/08/29 08:31:20;;;;;;;30.25;4.35;;;;;;;27.95;44.66;101020.86;1723142;82;27735;-63
2022/08/29 08:33:47;;;;;;;31.37;5.45;;;;;;;28.12;44.81;101014.03;1721233;82;25865;-65
2022/08/29 08:36:25;;;;;;;19.30;4.40;;;;;;;28.32;42.99;101021.86;1726273;83;25723;-63
2022/08/29 08:38:54;;;;;;;25.50;5.62;;;;;;;28.45;43.62;101023.46;1706318;81;26603;-64
2022/08/29 08:41:32;;;;;;;20.15;4.72;;;;;;;28.65;42.39;101021.58;1726220;82;25805;-64
2022/08/29 08:44:06;;;;;;;18.57;4.03;;;;;;;28.80;41.86;101024.34;1722226;81;28154;-63
2022/08/29 08:46:43;;;;;;;29.00;4.50;;;;;;;28.96;42.27;101018.48;1715810;83;25811;-63
2022/08/29 08:49:18;;;;;;;19.30;3.92;;;;;;;29.13;42.02;101022.09;1694883;83;25797;-63
2022/08/29 08:51:53;;;;;;;21.73;4.28;;;;;;;29.33;41.67;101023.48;1717856;82;25767;-66
2022/08/29 08:54:29;;;;;;;30.77;4.72;;;;;;;29.53;41.54;101022.94;1719002;82;25783;-64
2022/08/29 08:57:11;;;;;;;24.80;4.30;;;;;;;29.71;40.79;101027.86;1698298;82;27484;-64
2022/08/29 08:59:45;;;;;;;24.32;3.77;;;;;;;29.88;40.16;101021.69;1725694;82;31359;-63
2022/08/29 09:02:48;;;;;;;19.98;4.33;;;;;;;30.10;39.87;101016.66;1705407;82;26556;-63
2022/08/29 09:05:35;;;;;;;22.17;3.98;;;;;;;30.32;39.30;101020.76;1660132;84;25859;-64
2022/08/29 09:08:28;;;;;;;13.45;4.40;;;;;;;30.53;38.33;101017.64;1665898;84;26470;-63
2022/08/29 09:11:10;;;;;;;12.73;3.37;;;;;;;30.79;38.31;101010.92;1668708;85;28370;-65
2022/08/29 09:14:01;;;;;;;14.47;3.90;;;;;;;31.03;37.33;101009.13;1718975;83;25713;-65
2022/08/29 09:16:36;;;;;;;22.32;4.60;;;;;;;31.34;37.02;101007.38;1719291;82;25783;-64
2022/08/29 09:19:10;;;;;;;15.93;3.40;;;;;;;31.73;35.99;101015.08;1718764;82;25952;-63
2022/08/29 09:21:42;;;;;;;31.27;4.03;;;;;;;32.03;35.05;101007.38;1714882;82;25850;-64
2022/08/29 09:24:18;;;;;;;21.60;4.08;;;;;;;32.37;34.06;101008.27;1713477;83;27487;-63
2022/08/29 09:26:45;;;;;;;28.20;4.03;;;;;;;32.74;33.65;101007.69;1680810;84;25823;-64
2022/08/29 09:29:12;;;;;;;17.80;4.22;;;;;;;33.18;32.85;101002.88;1718893;82;25769;-64
2022/08/29 09:31:39;;;;;;;13.75;3.65;;;;;;;33.64;32.08;101003.84;1718903;83;25910;-64
2022/08/29 09:34:11;;;;;;;17.62;3.90;;;;;;;34.14;31.13;100999.67;1716206;82;25872;-64
2022/08/29 09:36:45;;;;;;;20.45;5.08;;;;;;;34.82;30.59;101002.20;1719544;83;28221;-64
2022/08/29 09:39:31;;;;;;;24.87;3.85;;;;;;;35.59;29.33;100998.28;1715497;82;26561;-64
2022/08/29 09:42:21;;;;;;;15.30;3.35;;;;;;;36.22;28.92;100990.09;1718043;83;25772;-63
2022/08/29 09:44:55;;;;;;;19.35;3.70;;;;;;;36.91;28.56;100990.91;1693203;82;26466;-65
2022/08/29 09:47:29;;;;;;;20.12;3.17;;;;;;;37.57;27.16;100986.47;1680707;84;25848;-65
2022/08/29 09:50:25;;;;;;;14.53;3.20;;;;;;;37.91;25.34;100982.94;1727196;82;27472;-65
2022/08/29 09:53:02;;;;;;;19.55;3.62;;;;;;;38.20;25.94;100984.48;1729177;82;26476;-66
2022/08/29 09:55:43;;;;;;;15.93;3.15;;;;;;;38.79;26.40;100983.56;1726245;81;25807;-66
2022/08/29 09:58:24;;;;;;;15.18;3.98;;;;;;;39.38;24.92;100978.27;1696767;83;26539;-63
2022/08/29 10:01:09;;;;;;;21.83;3.70;;;;;;;39.76;24.25;100974.88;1683855;83;25774;-64
2022/08/29 10:03:41;;;;;;;19.65;3.27;;;;;;;39.95;23.27;100972.28;1689047;84;27669;-64
2022/08/29 10:06:21;;;;;;;20.55;3.55;;;;;;;40.36;22.75;100964.72;1664530;84;33697;-64
2022/08/29 10:09:07;;;;;;;18.82;3.50;;;;;;;40.72;22.65;100962.66;1692732;84;25806;-64
2022/08/29 10:11:46;;;;;;;26.70;3.75;;;;;;;40.93;22.25;100966.97;1721936;81;25812;-64
2022/08/29 10:14:23;;;;;;;28.57;3.77;;;;;;;41.28;21.52;100962.56;1700046;83;26014;-65
2022/08/29 10:19:56;;;;;;;23.38;3.90;;;;;;;41.70;20.65;100963.78;1727059;82;25764;-65
2022/08/29 10:25:43;;;;;;;16.52;3.40;;;;;;;42.64;20.11;100956.73;1689664;81;26245;-65
2022/08/29 10:28:50;;;;;;;18.35;2.92;;;;;;;42.98;19.55;100955.25;1719571;81;26544;-64
2022/08/29 10:31:36;;;;;;;16.40;3.83;;;;;;;43.32;19.38;100948.87;1712561;81;27631;-65
2022/08/29 10:34:43;;;;;;;13.68;3.15;;;;;;;43.59;18.00;100947.89;1703220;83;26449;-64
2022/08/29 10:37:52;;;;;;;20.80;3.22;;;;;;;43.67;18.08;100946.92;1726258;81;25788;-64
2022/08/29 10:40:42;;;;;;;18.02;3.12;;;;;;;44.19;17.91;100946.61;1724759;82;26348;-64
2022/08/29 10:43:38;;;;;;;8.50;2.55;;;;;;;44.38;17.33;100943.08;1710238;82;26589;-66
2022/08/29 10:46:20;;;;;;;9.38;2.65;;;;;;;44.80;17.27;100938.91;1727078;82;27560;-64
2022/08/29 10:49:07;;;;;;;21.65;3.62;;;;;;;45.30;17.32;100945.58;1728279;82;35438;-64
2022/08/29 10:51:59;;;;;;;13.40;2.55;;;;;;;45.34;15.67;100939.37;1726385;82;25826;-64
2022/08/29 10:54:32;;;;;;;;;;;;;;;45.47;15.59;100932.37;1731724;82;26023;-64
2022/08/29 10:57:02;;;;;;;22.10;3.10;;;;;;;45.73;15.43;100935.17;1726331;82;25702;-67
2022/08/29 10:59:40;;;;;;;14.53;2.43;;;;;;;45.89;15.81;100925.73;1643270;86;27730;-64
2022/08/29 11:02:30;;;;;;;15.68;3.12;;;;;;;45.99;15.52;100920.88;1659055;84;25898;-64
2022/08/29 11:05:02;;;;;;;10.95;2.70;;;;;;;46.22;15.37;100931.44;1670194;85;25770;-63
2022/08/29 11:07:34;;;;;;;25.72;3.67;;;;;;;46.51;15.13;100922.88;1668228;84;25853;-66
2022/08/29 11:10:09;;;;;;;10.50;2.70;;;;;;;46.83;15.30;100919.74;1712044;83;25779;-64
2022/08/29 11:13:10;;;;;;;15.23;3.20;;;;;;;47.06;14.72;100915.19;1666965;86;55431;-65
2022/08/29 11:15:51;;;;;;;17.35;3.52;;;;;;;47.19;13.98;100903.83;1711642;83;25768;-64
2022/08/29 11:18:53;;;;;;;12.65;2.42;;;;;;;47.32;13.95;100905.83;1667185;84;25742;-64
2022/08/29 11:21:31;;;;;;;21.48;2.98;;;;;;;47.34;13.73;100905.66;1711306;82;25817;-64
2022/08/29 11:24:01;;;;;;;11.18;2.52;;;;;;;47.36;13.46;100905.26;1705391;82;25906;-63
2022/08/29 11:26:54;;;;;;;8.70;2.50;;;;;;;47.06;13.02;100899.53;1706032;82;27758;-64
2022/08/29 11:29:41;;;;;;;16.62;2.58;;;;;;;46.94;13.00;100901.39;1719997;82;25815;-65
2022/08/29 11:32:22;;;;;;;14.30;2.45;;;;;;;47.03;13.48;100896.86;1679938;84;25870;-64
2022/08/29 11:35:10;;;;;;;13.03;2.22;;;;;;;46.99;13.45;100898.23;1700032;83;25806;-64
2022/08/29 11:38:00;;;;;;;11.35;2.65;;;;;;;47.44;13.45;100893.36;1665405;84;25864;-63
2022/08/29 11:40:42;;;;;;;18.35;2.90;;;;;;;47.77;13.07;100886.03;1698499;83;27408;-64
2022/08/29 11:43:14;;;;;;;17.82;3.00;;;;;;;47.78;12.90;100887.08;1661197;83;26855;-64
2022/08/29 11:45:43;;;;;;;11.40;2.30;;;;;;;47.73;12.77;100879.48;1671872;84;25503;-64
2022/08/29 11:48:21;;;;;;;10.82;2.10;;;;;;;47.04;12.76;100877.15;1674164;84;26035;-63
2022/08/29 11:50:48;;;;;;;12.63;2.65;;;;;;;46.86;13.14;100879.73;1677106;84;25814;-63